Time;durP1;ratioP1;P1;durP2;ratioP2;P2;SDS_P1;SDS_P2;PMS_P1;PMS_P2;Temp;Humidity;BMP_temperature;BMP_pressure;BME280_temperature;BME280_humidity;BME280_pressure;Samples;Min_cycle;Max_cycle;Signal;HPM_P1;HPM_P2
2021/05/13 00:01:41;;;;;;;3.13;2.45;;;14.00;99.90;;;;;;5086308;28;20044;-76
2021/05/13 00:04:07;;;;;;;4.28;2.05;;;14.00;99.90;;;;;;5086212;28;20031;-77
2021/05/13 00:06:32;;;;;;;5.18;1.23;;;14.00;99.90;;;;;;5087025;28;20046;-77
2021/05/13 00:08:58;;;;;;;11.57;3.15;;;14.00;99.90;;;;;;5087229;28;20019;-77
2021/05/13 00:11:30;;;;;;;3.17;1.80;;;14.00;99.90;;;;;;5087914;28;20407;-76
2021/05/13 00:13:56;;;;;;;3.38;2.13;;;14.00;99.90;;;;;;5088083;28;20103;-77
2021/05/13 00:16:27;;;;;;;3.65;2.22;;;14.00;99.90;;;;;;5086497;28;20106;-77
2021/05/13 00:18:52;;;;;;;;;;;14.00;99.90;;;;;;5086126;28;20032;-77
2021/05/13 00:21:18;;;;;;;3.38;2.40;;;14.00;99.90;;;;;;5085775;28;19912;-77
2021/05/13 00:23:46;;;;;;;6.50;1.98;;;14.00;99.90;;;;;;5086091;28;20037;-77
2021/05/13 00:26:12;;;;;;;6.30;2.17;;;14.00;99.90;;;;;;5085288;28;20048;-77
2021/05/13 00:28:38;;;;;;;3.80;1.92;;;13.90;99.90;;;;;;5086780;28;20062;-77
2021/05/13 00:31:04;;;;;;;5.55;2.53;;;13.90;99.90;;;;;;5086495;28;20032;-77
2021/05/13 00:33:29;;;;;;;5.65;2.13;;;13.90;99.90;;;;;;5088346;28;20027;-77
2021/05/13 00:35:55;;;;;;;2.15;1.80;;;13.90;99.90;;;;;;5085775;28;20527;-78
2021/05/13 00:38:20;;;;;;;2.47;1.80;;;13.90;99.90;;;;;;5086961;28;20055;-77
2021/05/13 00:40:45;;;;;;;2.75;1.58;;;13.90;99.90;;;;;;5087238;28;20016;-77
2021/05/13 00:43:11;;;;;;;4.95;1.92;;;13.90;99.90;;;;;;5087779;28;20454;-77
2021/05/13 00:45:37;;;;;;;7.75;2.17;;;13.80;99.90;;;;;;5086909;28;20525;-77
2021/05/13 00:48:05;;;;;;;2.35;1.77;;;13.80;99.90;;;;;;5086834;28;20040;-77
2021/05/13 00:50:33;;;;;;;6.15;2.00;;;13.80;99.90;;;;;;5086315;28;20048;-77
2021/05/13 00:53:03;;;;;;;3.83;1.80;;;13.70;99.90;;;;;;5086631;28;20032;-77
2021/05/13 00:55:28;;;;;;;6.72;2.40;;;13.60;99.90;;;;;;5087487;28;20028;-78
2021/05/13 00:57:55;;;;;;;5.88;1.60;;;13.60;99.90;;;;;;5086065;28;20035;-78
2021/05/13 01:03:19;;;;;;;6.68;2.08;;;13.50;99.90;;;;;;5083534;28;20554;-78
2021/05/13 01:05:45;;;;;;;5.15;1.55;;;13.50;99.90;;;;;;5086153;28;20027;-78
2021/05/13 01:08:11;;;;;;;3.08;1.63;;;13.50;99.90;;;;;;5085957;28;20031;-78
2021/05/13 01:10:38;;;;;;;2.42;1.40;;;13.50;99.90;;;;;;5086804;28;20394;-78
2021/05/13 01:13:06;;;;;;;5.32;1.70;;;13.50;99.90;;;;;;5086532;28;20066;-77
2021/05/13 01:15:36;;;;;;;2.85;1.27;;;13.40;99.90;;;;;;5091911;28;20058;-77
2021/05/13 01:18:17;;;;;;;8.32;1.88;;;13.40;99.90;;;;;;5082269;28;20024;-78
2021/05/13 01:20:44;;;;;;;5.75;2.28;;;13.40;99.90;;;;;;5086702;28;20044;-77
2021/05/13 01:23:13;;;;;;;4.28;1.58;;;13.40;99.90;;;;;;5090058;28;20024;-77
2021/05/13 01:25:51;;;;;;;5.95;2.05;;;13.30;99.90;;;;;;5089583;28;20030;-78
2021/05/13 01:28:18;;;;;;;3.60;1.83;;;13.40;99.90;;;;;;5088891;28;20039;-77
2021/05/13 01:30:45;;;;;;;2.50;1.80;;;13.40;99.90;;;;;;5090598;28;20059;-77
2021/05/13 01:33:12;;;;;;;9.05;2.28;;;13.30;99.90;;;;;;5088767;28;20512;-77
2021/05/13 01:35:39;;;;;;;5.68;1.92;;;13.30;99.90;;;;;;5087499;28;20111;-77
2021/05/13 01:38:13;;;;;;;5.47;2.30;;;13.30;99.90;;;;;;5089355;28;20233;-77
2021/05/13 01:40:39;;;;;;;5.38;2.08;;;13.20;99.90;;;;;;5089057;28;20441;-77
2021/05/13 01:43:05;;;;;;;5.38;2.00;;;13.30;99.90;;;;;;5090762;28;20032;-77
2021/05/13 01:45:32;;;;;;;4.32;1.95;;;13.20;99.90;;;;;;5089498;28;20054;-77
2021/05/13 01:48:02;;;;;;;5.20;1.60;;;13.20;99.90;;;;;;5089464;28;20052;-77
2021/05/13 01:50:32;;;;;;;3.95;1.70;;;13.30;99.90;;;;;;5090246;28;20048;-77
2021/05/13 01:52:59;;;;;;;3.58;2.00;;;13.20;99.90;;;;;;5089546;28;20027;-77
2021/05/13 01:55:25;;;;;;;2.75;1.90;;;13.20;99.90;;;;;;5089311;28;20482;-77
2021/05/13 01:57:52;;;;;;;5.07;1.98;;;13.20;99.90;;;;;;5088710;28;20693;-77
2021/05/13 02:00:18;;;;;;;7.32;2.47;;;13.10;99.90;;;;;;5090660;28;20043;-77
2021/05/13 02:02:45;;;;;;;2.28;1.70;;;13.10;99.90;;;;;;5090173;28;20107;-77
2021/05/13 02:05:11;;;;;;;6.75;2.10;;;13.10;99.90;;;;;;5089962;28;20085;-77
2021/05/13 02:07:38;;;;;;;4.68;2.42;;;13.10;99.90;;;;;;5087957;28;20043;-77
2021/05/13 02:10:04;;;;;;;4.90;2.00;;;13.00;99.90;;;;;;5088364;28;20055;-77
2021/05/13 02:12:29;;;;;;;4.57;2.40;;;13.00;99.90;;;;;;5088661;28;20036;-77
2021/05/13 02:14:55;;;;;;;3.70;2.08;;;13.10;99.90;;;;;;5089194;28;20022;-77
2021/05/13 02:17:20;;;;;;;5.63;1.85;;;13.00;99.90;;;;;;5088463;28;20039;-77
2021/05/13 02:19:46;;;;;;;2.33;1.70;;;13.00;99.90;;;;;;5089378;28;20417;-77
2021/05/13 02:22:11;;;;;;;5.10;2.17;;;13.00;99.90;;;;;;5089381;28;20028;-77
2021/05/13 02:24:37;;;;;;;2.78;2.03;;;13.00;99.90;;;;;;5088707;28;20016;-77
2021/05/13 02:27:02;;;;;;;2.92;2.17;;;13.00;99.90;;;;;;5088259;28;20032;-77
2021/05/13 02:29:28;;;;;;;2.75;1.58;;;12.90;99.90;;;;;;5089333;28;20031;-77
2021/05/13 02:31:53;;;;;;;3.83;1.77;;;13.00;99.90;;;;;;5089021;28;20028;-77
2021/05/13 02:34:19;;;;;;;6.45;2.10;;;13.00;99.90;;;;;;5088846;28;20016;-77
2021/05/13 02:36:44;;;;;;;7.55;1.88;;;12.90;99.90;;;;;;5089754;28;20035;-77
2021/05/13 02:39:10;;;;;;;3.55;2.00;;;12.90;99.90;;;;;;5087244;28;20498;-77
2021/05/13 02:41:35;;;;;;;8.68;2.05;;;12.90;99.90;;;;;;5088815;28;20027;-77
2021/05/13 02:44:01;;;;;;;5.03;2.33;;;12.80;99.90;;;;;;5087791;28;20471;-77
2021/05/13 02:46:26;;;;;;;9.13;2.45;;;12.80;99.90;;;;;;5090145;28;20073;-77
2021/05/13 02:48:52;;;;;;;5.85;2.42;;;12.80;99.90;;;;;;5088335;28;20024;-77
2021/05/13 02:51:17;;;;;;;2.92;1.83;;;12.80;99.90;;;;;;5088553;28;20055;-77
2021/05/13 02:53:43;;;;;;;4.68;1.90;;;12.80;99.90;;;;;;5088756;28;20040;-77
2021/05/13 02:56:08;;;;;;;5.65;2.10;;;12.80;99.90;;;;;;5089262;28;20382;-77
2021/05/13 02:58:33;;;;;;;5.57;1.65;;;12.80;99.90;;;;;;5087121;28;20028;-77
2021/05/13 03:01:09;;;;;;;3.00;2.45;;;12.80;99.90;;;;;;5089151;28;20032;-77
2021/05/13 03:03:35;;;;;;;5.70;2.38;;;12.80;99.90;;;;;;5086738;28;20023;-77
2021/05/13 03:06:00;;;;;;;4.22;2.20;;;12.80;99.90;;;;;;5081066;28;20024;-77
2021/05/13 03:08:26;;;;;;;9.75;1.95;;;12.80;99.90;;;;;;5088460;28;20029;-77
2021/05/13 03:10:51;;;;;;;2.25;1.65;;;12.90;99.90;;;;;;5087480;28;20103;-77
2021/05/13 03:13:22;;;;;;;5.15;2.33;;;12.90;99.90;;;;;;5084996;28;20031;-77
2021/05/13 03:15:50;;;;;;;3.63;2.20;;;12.80;99.90;;;;;;5085964;28;20058;-77
2021/05/13 03:18:16;;;;;;;3.15;2.05;;;12.80;99.90;;;;;;5089228;28;20111;-77
2021/05/13 03:20:46;;;;;;;5.97;2.45;;;12.80;99.90;;;;;;5087672;28;20024;-77
2021/05/13 03:23:12;;;;;;;4.75;2.47;;;12.80;99.90;;;;;;5087974;28;20445;-77
2021/05/13 03:25:41;;;;;;;4.95;2.15;;;12.80;99.90;;;;;;5088467;28;20099;-77
2021/05/13 03:28:08;;;;;;;8.30;2.38;;;12.80;99.90;;;;;;5085816;28;20726;-77
2021/05/13 03:30:44;;;;;;;1.73;1.48;;;12.80;99.90;;;;;;5083320;28;20032;-77
2021/05/13 03:33:12;;;;;;;5.35;2.13;;;12.80;99.90;;;;;;5086986;28;20040;-77
2021/05/13 03:35:37;;;;;;;2.13;1.90;;;12.80;99.90;;;;;;5087964;28;20052;-78
2021/05/13 03:38:05;;;;;;;2.88;1.77;;;12.80;99.90;;;;;;5087505;28;20491;-77
2021/05/13 03:40:31;;;;;;;3.17;1.85;;;12.90;99.90;;;;;;5087163;28;20020;-78
2021/05/13 03:43:00;;;;;;;7.38;2.55;;;12.80;99.90;;;;;;5088210;28;20362;-77
2021/05/13 03:45:25;;;;;;;5.93;1.95;;;12.80;99.90;;;;;;5088757;28;20024;-78
2021/05/13 03:47:51;;;;;;;4.60;2.40;;;12.80;99.90;;;;;;5085464;28;20031;-78
2021/05/13 03:50:17;;;;;;;4.30;2.35;;;12.90;99.90;;;;;;5086027;28;20077;-78
2021/05/13 03:52:43;;;;;;;2.17;1.45;;;12.90;99.90;;;;;;5088398;28;20028;-78
2021/05/13 03:55:14;;;;;;;3.22;2.35;;;12.80;99.90;;;;;;5086268;28;20027;-77
2021/05/13 03:57:41;;;;;;;;;;;12.80;99.90;;;;;;5086852;28;20580;-77
2021/05/13 04:00:11;;;;;;;4.32;2.00;;;12.80;99.90;;;;;;5086160;28;19945;-78
2021/05/13 04:02:36;;;;;;;4.50;2.40;;;12.80;99.90;;;;;;5085490;28;20083;-77
2021/05/13 04:05:03;;;;;;;3.50;1.85;;;12.90;99.90;;;;;;5087422;28;20031;-78
2021/05/13 04:07:31;;;;;;;6.25;3.13;;;12.90;99.90;;;;;;5086283;28;20386;-77
2021/05/13 04:09:57;;;;;;;4.10;1.70;;;12.90;99.90;;;;;;5087647;28;20060;-77
2021/05/13 04:12:24;;;;;;;3.60;2.08;;;12.90;99.90;;;;;;5087664;28;20036;-78
2021/05/13 04:14:50;;;;;;;6.28;2.25;;;12.90;99.90;;;;;;5087096;28;20735;-77
2021/05/13 04:17:16;;;;;;;9.77;2.45;;;13.00;99.90;;;;;;5086507;28;20059;-77
2021/05/13 04:19:42;;;;;;;14.02;2.65;;;12.90;99.90;;;;;;5086280;28;20061;-77
2021/05/13 04:22:07;;;;;;;3.47;2.28;;;12.90;99.90;;;;;;5088067;28;20127;-78
2021/05/13 04:24:33;;;;;;;4.53;2.13;;;12.90;99.90;;;;;;5085158;28;20032;-77
2021/05/13 04:26:59;;;;;;;4.18;2.20;;;13.00;99.90;;;;;;5084952;28;20527;-77
2021/05/13 04:29:24;;;;;;;2.53;1.75;;;13.00;99.90;;;;;;5087119;28;20024;-77
2021/05/13 04:31:50;;;;;;;4.18;1.90;;;13.00;99.90;;;;;;5084184;28;20062;-77
2021/05/13 04:34:15;;;;;;;6.75;2.35;;;13.00;99.90;;;;;;5085632;28;20025;-77
2021/05/13 04:36:41;;;;;;;4.72;2.30;;;13.10;99.90;;;;;;5085020;28;20028;-77
2021/05/13 04:39:06;;;;;;;3.67;2.10;;;13.10;99.90;;;;;;5086260;28;20016;-77
2021/05/13 04:41:33;;;;;;;4.07;2.08;;;13.10;99.90;;;;;;5086473;28;20024;-77
2021/05/13 04:44:00;;;;;;;5.57;3.00;;;13.00;99.90;;;;;;5086060;28;20058;-77
2021/05/13 04:46:29;;;;;;;4.63;2.28;;;13.00;99.90;;;;;;5086668;28;20028;-77
2021/05/13 04:51:31;;;;;;;4.22;2.30;;;13.10;99.90;;;;;;5091320;28;20063;-77
2021/05/13 04:53:57;;;;;;;4.30;2.30;;;13.10;99.90;;;;;;5091102;28;20107;-77
2021/05/13 04:56:23;;;;;;;5.50;2.60;;;13.00;99.90;;;;;;5092368;28;20036;-76
2021/05/13 04:58:49;;;;;;;5.07;2.13;;;13.00;99.90;;;;;;5090436;28;20025;-77
2021/05/13 05:01:15;;;;;;;2.55;1.75;;;13.10;99.90;;;;;;5092487;28;20061;-77
2021/05/13 05:03:41;;;;;;;4.03;2.15;;;13.10;99.90;;;;;;5088903;28;20028;-77
2021/05/13 05:06:07;;;;;;;4.38;2.45;;;13.10;99.90;;;;;;5090593;28;20641;-77
2021/05/13 05:08:32;;;;;;;7.20;2.28;;;13.10;99.90;;;;;;5089994;28;20476;-77
2021/05/13 05:10:58;;;;;;;6.13;1.90;;;13.00;99.90;;;;;;5088958;28;20119;-77
2021/05/13 05:13:23;;;;;;;2.65;1.85;;;13.10;99.90;;;;;;5089661;28;20029;-77
2021/05/13 05:15:49;;;;;;;3.40;1.98;;;13.10;99.90;;;;;;5090782;28;20066;-77
2021/05/13 05:18:22;;;;;;;5.55;2.10;;;13.20;99.90;;;;;;5090480;28;20092;-77
2021/05/13 05:20:49;;;;;;;6.70;2.53;;;13.20;99.90;;;;;;5090027;28;20028;-77
2021/05/13 05:23:18;;;;;;;3.75;2.47;;;13.20;99.90;;;;;;5090440;28;20437;-77
2021/05/13 05:25:43;;;;;;;3.75;2.42;;;13.20;99.90;;;;;;5089249;28;20373;-77
2021/05/13 05:28:09;;;;;;;3.55;1.98;;;13.10;99.90;;;;;;5090521;28;20111;-77
2021/05/13 05:30:36;;;;;;;4.55;2.00;;;13.10;99.90;;;;;;5090275;28;20443;-77
2021/05/13 05:33:05;;;;;;;4.43;2.00;;;13.20;99.90;;;;;;5090186;28;20059;-77
2021/05/13 05:35:32;;;;;;;5.07;2.50;;;13.20;99.90;;;;;;5089729;28;20111;-77
2021/05/13 05:37:58;;;;;;;3.13;2.20;;;13.20;99.90;;;;;;5088124;28;20028;-77
2021/05/13 05:40:24;;;;;;;2.60;1.65;;;13.20;99.90;;;;;;5089832;28;20478;-77
2021/05/13 05:42:51;;;;;;;4.82;2.28;;;13.20;99.90;;;;;;5085985;28;20024;-77
2021/05/13 05:45:19;;;;;;;2.83;1.95;;;13.20;99.90;;;;;;5090779;28;20086;-77
2021/05/13 05:47:45;;;;;;;6.32;2.25;;;13.20;99.90;;;;;;5090617;28;20379;-77
2021/05/13 05:50:11;;;;;;;3.45;1.70;;;13.20;99.90;;;;;;5090107;28;20532;-77
2021/05/13 05:52:37;;;;;;;3.13;2.05;;;13.30;99.90;;;;;;5089700;28;20123;-76
2021/05/13 05:55:04;;;;;;;3.85;1.98;;;13.30;99.90;;;;;;5089453;28;20024;-76
2021/05/13 05:57:30;;;;;;;5.13;2.30;;;13.40;99.90;;;;;;5089803;28;20086;-76
2021/05/13 05:59:55;;;;;;;2.35;2.03;;;13.40;99.90;;;;;;5090001;28;20413;-76
2021/05/13 06:02:21;;;;;;;3.63;2.22;;;13.40;99.90;;;;;;5088147;28;20020;-76
2021/05/13 06:04:46;;;;;;;2.50;1.85;;;13.40;99.90;;;;;;5089782;28;20055;-76
2021/05/13 06:07:12;;;;;;;3.45;1.63;;;13.40;99.90;;;;;;5088238;28;20077;-76
2021/05/13 06:09:38;;;;;;;2.63;1.67;;;13.40;99.90;;;;;;5089937;28;20062;-78
2021/05/13 06:12:04;;;;;;;1.92;1.45;;;13.40;99.90;;;;;;5089211;28;20391;-77
2021/05/13 06:14:29;;;;;;;2.05;1.48;;;13.40;99.90;;;;;;5088561;28;20406;-76
2021/05/13 06:16:55;;;;;;;2.60;1.60;;;13.40;99.90;;;;;;5088788;28;20020;-78
2021/05/13 06:19:20;;;;;;;4.05;2.03;;;13.40;99.90;;;;;;5087975;28;20451;-77
2021/05/13 06:21:46;;;;;;;2.47;1.63;;;13.50;99.90;;;;;;5088746;28;20016;-86
2021/05/13 06:24:11;;;;;;;2.95;2.03;;;13.50;99.90;;;;;;5089667;28;20068;-78
2021/05/13 06:26:58;;;;;;;4.35;2.25;;;13.40;99.90;;;;;;5087153;28;20024;-84
2021/05/13 06:29:25;;;;;;;3.67;2.00;;;13.40;99.90;;;;;;5081808;28;20047;-84
2021/05/13 06:31:50;;;;;;;4.10;2.20;;;13.40;99.90;;;;;;5088208;28;20048;-79
2021/05/13 06:34:16;;;;;;;3.55;2.13;;;13.40;99.90;;;;;;5090411;28;20070;-81
2021/05/13 06:36:42;;;;;;;4.68;2.20;;;13.40;99.90;;;;;;5088527;28;20088;-78
2021/05/13 06:39:08;;;;;;;5.55;2.85;;;13.40;99.90;;;;;;5089994;28;20024;-76
2021/05/13 06:41:34;;;;;;;2.80;1.70;;;13.50;99.90;;;;;;5088357;28;20031;-82
2021/05/13 06:44:00;;;;;;;4.82;2.70;;;13.50;99.90;;;;;;5088087;28;20024;-78
2021/05/13 06:46:25;;;;;;;3.72;2.72;;;13.40;99.90;;;;;;5089014;28;20020;-77
2021/05/13 06:48:52;;;;;;;3.95;2.58;;;13.50;99.90;;;;;;5086390;28;20575;-76
2021/05/13 06:51:20;;;;;;;3.70;1.92;;;13.50;99.90;;;;;;5089752;28;20081;-79
2021/05/13 06:53:47;;;;;;;3.65;2.20;;;13.50;99.90;;;;;;5086350;28;20043;-80
2021/05/13 06:56:14;;;;;;;3.15;2.28;;;13.60;99.90;;;;;;5088155;28;20024;-76
2021/05/13 06:58:40;;;;;;;5.20;2.33;;;13.60;99.90;;;;;;5075657;28;20043;-78
2021/05/13 07:01:05;;;;;;;2.78;2.25;;;13.60;99.90;;;;;;5088483;28;20028;-78
2021/05/13 07:03:32;;;;;;;7.05;1.92;;;13.60;99.90;;;;;;5087925;28;20028;-76
2021/05/13 07:05:57;;;;;;;3.88;2.67;;;13.60;99.90;;;;;;5089385;28;20077;-79
2021/05/13 07:08:23;;;;;;;5.22;2.45;;;13.50;99.90;;;;;;5088137;28;20032;-80
2021/05/13 07:10:48;;;;;;;4.60;2.60;;;13.50;99.90;;;;;;5088984;28;20024;-77
2021/05/13 07:13:14;;;;;;;2.35;2.00;;;13.50;99.90;;;;;;5087795;28;20024;-76
2021/05/13 07:15:40;;;;;;;5.40;3.03;;;13.40;99.90;;;;;;5086596;28;20472;-78
2021/05/13 07:18:11;;;;;;;3.40;2.20;;;13.40;99.90;;;;;;5085260;28;20097;-81
2021/05/13 07:20:37;;;;;;;4.60;2.42;;;13.30;99.90;;;;;;5077429;28;20513;-80
2021/05/13 07:23:04;;;;;;;3.85;2.35;;;13.40;99.90;;;;;;5085939;28;20070;-82
2021/05/13 07:25:29;;;;;;;3.63;2.33;;;13.50;99.90;;;;;;5087990;28;20032;-81
2021/05/13 07:27:55;;;;;;;4.28;2.17;;;13.40;99.90;;;;;;5087984;28;20073;-81
2021/05/13 07:30:21;;;;;;;3.80;2.35;;;13.40;99.90;;;;;;5089034;28;20554;-81
2021/05/13 07:32:47;;;;;;;4.15;2.17;;;13.40;99.90;;;;;;5088981;28;20024;-77
2021/05/13 07:35:25;;;;;;;6.32;2.40;;;13.40;99.90;;;;;;5086981;28;20115;-79
2021/05/13 07:37:51;;;;;;;6.40;1.92;;;13.40;99.90;;;;;;5088635;28;20036;-80
2021/05/13 07:40:19;;;;;;;3.50;2.25;;;13.40;99.90;;;;;;5086833;28;20024;-80
2021/05/13 07:42:45;;;;;;;3.35;2.00;;;13.40;99.90;;;;;;5086816;28;20031;-80
2021/05/13 07:45:12;;;;;;;4.43;2.30;;;13.40;99.90;;;;;;5088009;28;20058;-78
2021/05/13 07:47:38;;;;;;;3.30;2.35;;;13.40;99.90;;;;;;5086063;28;20046;-87
2021/05/13 07:50:09;;;;;;;2.78;2.03;;;13.40;99.90;;;;;;5087902;28;20032;-87
2021/05/13 07:52:35;;;;;;;7.50;2.58;;;13.30;99.90;;;;;;5088507;28;20394;-77
2021/05/13 07:55:01;;;;;;;5.40;2.53;;;13.30;99.90;;;;;;5086707;28;20032;-75
2021/05/13 07:57:27;;;;;;;3.47;2.15;;;13.30;99.90;;;;;;5085629;28;20065;-74
2021/05/13 07:59:53;;;;;;;5.60;2.17;;;13.20;99.90;;;;;;5085939;28;20059;-76
2021/05/13 08:02:18;;;;;;;5.57;2.28;;;13.30;99.90;;;;;;5087757;28;20016;-77
2021/05/13 08:04:44;;;;;;;6.20;3.15;;;13.30;99.90;;;;;;5081575;28;20475;-77
2021/05/13 08:07:10;;;;;;;16.00;5.88;;;13.20;99.90;;;;;;5087763;28;20021;-78
2021/05/13 08:09:35;;;;;;;13.40;5.43;;;13.30;99.90;;;;;;5085097;28;20038;-78
2021/05/13 08:12:01;;;;;;;5.18;2.97;;;13.20;99.90;;;;;;5088081;28;20020;-77
2021/05/13 08:14:26;;;;;;;4.30;2.50;;;13.20;99.90;;;;;;5085965;28;20032;-77
2021/05/13 08:16:52;;;;;;;2.63;1.90;;;13.10;99.90;;;;;;5087112;28;20103;-77
2021/05/13 08:19:17;;;;;;;4.10;2.70;;;13.30;99.90;;;;;;5086579;28;20043;-77
2021/05/13 08:21:43;;;;;;;3.30;2.00;;;13.20;99.90;;;;;;5086588;28;20028;-77
2021/05/13 08:24:08;;;;;;;4.38;3.50;;;13.20;99.90;;;;;;5085752;28;20035;-77
2021/05/13 08:26:34;;;;;;;5.15;2.42;;;13.20;99.90;;;;;;5084664;28;20063;-79
2021/05/13 08:28:59;;;;;;;4.35;2.55;;;13.20;99.90;;;;;;5086931;28;20024;-76
2021/05/13 08:31:25;;;;;;;3.22;2.55;;;13.20;99.90;;;;;;5088349;28;20103;-77
2021/05/13 08:33:50;;;;;;;3.28;1.92;;;13.20;99.90;;;;;;5086550;28;20088;-77
2021/05/13 08:36:16;;;;;;;7.18;1.92;;;13.20;99.90;;;;;;5085450;28;20425;-78
2021/05/13 08:38:41;;;;;;;3.40;2.17;;;13.20;99.90;;;;;;5085524;28;20114;-77
2021/05/13 08:41:09;;;;;;;6.50;2.58;;;13.20;99.90;;;;;;5084184;28;20031;-77
2021/05/13 08:43:35;;;;;;;2.90;2.15;;;13.20;99.90;;;;;;5085485;28;20059;-86
2021/05/13 08:46:00;;;;;;;2.92;1.77;;;13.20;99.90;;;;;;5088009;28;20052;-77
2021/05/13 08:48:28;;;;;;;3.13;2.08;;;13.10;99.90;;;;;;5087511;28;21892;-77
2021/05/13 08:50:54;;;;;;;4.47;2.22;;;13.10;99.90;;;;;;5086381;28;20052;-77
2021/05/13 08:53:20;;;;;;;3.03;1.75;;;13.00;99.90;;;;;;5083489;28;20439;-77
2021/05/13 08:55:46;;;;;;;2.55;1.58;;;13.00;99.90;;;;;;5086418;28;20059;-86
2021/05/13 08:58:12;;;;;;;3.45;2.08;;;13.00;99.90;;;;;;5086375;28;20089;-84
2021/05/13 09:00:38;;;;;;;3.28;1.80;;;13.00;99.90;;;;;;5087812;28;20399;-85
2021/05/13 09:03:04;;;;;;;3.35;1.80;;;13.00;99.90;;;;;;5086501;28;20039;-86
2021/05/13 09:05:30;;;;;;;3.33;1.90;;;13.10;99.90;;;;;;5081426;28;20603;-86
2021/05/13 09:07:55;;;;;;;2.40;1.70;;;13.00;99.90;;;;;;5087140;28;20107;-85
2021/05/13 09:10:25;;;;;;;2.63;1.83;;;13.00;99.90;;;;;;5086862;28;20455;-85
2021/05/13 09:12:52;;;;;;;2.10;1.80;;;13.00;99.90;;;;;;5087149;28;20084;-83
2021/05/13 09:15:20;;;;;;;3.75;2.30;;;13.00;99.90;;;;;;5086798;28;20020;-86
2021/05/13 09:17:51;;;;;;;3.40;1.83;;;13.00;99.90;;;;;;5086468;28;20035;-85
2021/05/13 09:20:28;;;;;;;4.47;2.30;;;13.00;99.90;;;;;;5085931;28;20028;-85
2021/05/13 09:23:11;;;;;;;4.22;1.80;;;13.00;99.90;;;;;;5086485;28;20043;-83
2021/05/13 09:25:36;;;;;;;3.17;1.85;;;13.00;99.90;;;;;;5086192;28;20239;-80
2021/05/13 09:28:02;;;;;;;4.85;2.00;;;13.10;99.90;;;;;;5086740;28;20032;-80
2021/05/13 09:30:29;;;;;;;3.40;2.17;;;13.10;99.90;;;;;;5085084;28;20032;-80
2021/05/13 09:32:59;;;;;;;4.15;1.80;;;13.10;99.90;;;;;;5087669;28;20044;-79
2021/05/13 09:35:29;;;;;;;3.22;2.08;;;13.00;99.90;;;;;;5087684;28;20031;-79
2021/05/13 09:37:59;;;;;;;2.28;1.50;;;12.90;99.90;;;;;;5089244;28;20115;-80
2021/05/13 09:40:52;;;;;;;2.65;2.10;;;12.90;99.90;;;;;;5087349;28;20498;-80
2021/05/13 09:43:23;;;;;;;3.00;2.17;;;12.90;99.90;;;;;;5085083;28;20116;-80
2021/05/13 09:45:57;;;;;;;2.63;1.92;;;12.90;99.90;;;;;;5090744;28;20368;-78
2021/05/13 09:48:33;;;;;;;2.50;1.67;;;13.00;99.90;;;;;;5089557;28;20089;-80
2021/05/13 09:51:26;;;;;;;4.78;2.38;;;13.10;99.90;;;;;;5075494;28;20072;-80
2021/05/13 09:54:15;;;;;;;3.03;1.80;;;13.10;99.90;;;;;;5081221;28;20032;-80
2021/05/13 09:56:49;;;;;;;4.20;2.15;;;13.20;99.90;;;;;;5085418;28;20028;-80
2021/05/13 09:59:34;;;;;;;3.58;2.15;;;13.20;99.90;;;;;;5090602;28;20031;-80
2021/05/13 10:02:02;;;;;;;2.88;2.20;;;13.20;99.90;;;;;;5075911;28;20032;-80
2021/05/13 10:04:28;;;;;;;3.35;2.22;;;13.20;99.90;;;;;;5085187;28;20066;-80
2021/05/13 10:06:54;;;;;;;2.28;1.85;;;13.20;99.90;;;;;;5086010;28;20495;-80
2021/05/13 10:09:21;;;;;;;4.13;2.20;;;13.20;99.90;;;;;;5089725;28;20140;-79
2021/05/13 10:11:55;;;;;;;6.65;2.20;;;13.20;99.90;;;;;;5090283;28;20447;-80
2021/05/13 10:14:25;;;;;;;2.53;1.92;;;13.20;99.90;;;;;;5088631;28;20072;-80
2021/05/13 10:16:53;;;;;;;3.40;2.00;;;13.20;99.90;;;;;;5090401;28;20034;-80
2021/05/13 10:19:23;;;;;;;3.05;2.08;;;13.30;99.90;;;;;;5089247;28;20185;-80
2021/05/13 10:21:50;;;;;;;2.10;1.65;;;13.30;99.90;;;;;;5088425;28;20036;-80
2021/05/13 10:24:17;;;;;;;3.75;1.85;;;13.40;99.90;;;;;;5087870;28;20077;-80
2021/05/13 10:26:48;;;;;;;3.78;1.80;;;13.30;99.90;;;;;;5090714;28;20032;-80
2021/05/13 10:29:20;;;;;;;3.17;1.55;;;13.30;99.90;;;;;;5090135;28;20032;-80
2021/05/13 10:31:46;;;;;;;2.45;1.67;;;13.30;99.90;;;;;;5089787;28;20032;-80
2021/05/13 10:34:12;;;;;;;2.05;1.27;;;13.40;99.90;;;;;;5089741;28;20114;-80
2021/05/13 10:36:37;;;;;;;1.55;1.05;;;13.40;99.90;;;;;;5089424;28;20115;-80
2021/05/13 10:39:11;;;;;;;3.75;0.98;;;13.40;99.90;;;;;;5089901;28;20058;-80
2021/05/13 10:41:41;;;;;;;10.98;4.30;;;13.50;99.90;;;;;;5088294;28;20108;-80
2021/05/13 10:44:06;;;;;;;3.45;2.28;;;13.60;99.90;;;;;;5089430;28;20534;-79
2021/05/13 10:46:32;;;;;;;2.42;1.52;;;13.60;99.90;;;;;;5086676;28;20030;-80
2021/05/13 10:49:23;;;;;;;1.45;1.15;;;13.70;99.90;;;;;;5085356;28;20036;-80
2021/05/13 10:51:50;;;;;;;1.67;1.17;;;13.80;99.90;;;;;;5081599;28;20085;-80
2021/05/13 10:54:28;;;;;;;2.42;1.40;;;13.80;99.90;;;;;;5087860;28;20102;-80
2021/05/13 10:57:13;;;;;;;2.05;1.25;;;13.80;99.90;;;;;;5087250;28;20028;-80
2021/05/13 10:59:39;;;;;;;1.67;1.27;;;13.90;99.90;;;;;;5089441;28;21602;-80
2021/05/13 11:02:25;;;;;;;1.55;1.33;;;13.90;99.90;;;;;;5089247;28;20051;-80
2021/05/13 11:04:53;;;;;;;2.92;1.50;;;13.90;99.90;;;;;;5081544;28;20028;-80
2021/05/13 11:07:26;;;;;;;2.88;1.60;;;13.80;99.90;;;;;;5088006;28;20035;-80
2021/05/13 11:09:54;;;;;;;5.90;1.58;;;13.80;99.90;;;;;;5086396;28;20421;-80
2021/05/13 11:12:40;;;;;;;1.60;1.42;;;13.80;99.90;;;;;;5088344;28;20464;-80
2021/05/13 11:15:28;;;;;;;3.17;1.73;;;13.70;99.90;;;;;;5083453;28;20043;-80
2021/05/13 11:17:59;;;;;;;1.90;1.27;;;13.60;99.90;;;;;;5078801;28;20049;-80
2021/05/13 11:20:50;;;;;;;2.25;1.40;;;13.60;99.90;;;;;;5089055;28;20161;-80
2021/05/13 11:23:19;;;;;;;6.20;2.88;;;13.60;99.90;;;;;;5080835;28;20028;-80
2021/05/13 11:25:50;;;;;;;8.02;2.20;;;13.70;99.90;;;;;;5085907;28;20436;-80
2021/05/13 11:28:25;;;;;;;3.47;2.08;;;13.80;99.90;;;;;;5077988;28;20035;-80
2021/05/13 11:30:55;;;;;;;9.90;3.20;;;13.70;99.90;;;;;;5084824;28;20059;-80
2021/05/13 11:33:22;;;;;;;3.72;2.25;;;13.70;99.90;;;;;;5088790;28;20031;-80
2021/05/13 11:35:47;;;;;;;6.07;2.92;;;13.60;99.90;;;;;;5089458;28;20062;-80
2021/05/13 11:38:31;;;;;;;5.30;2.80;;;13.60;99.90;;;;;;5089343;28;20431;-79
2021/05/13 11:40:57;;;;;;;3.55;2.20;;;13.60;99.90;;;;;;5077021;28;20024;-79
2021/05/13 11:43:28;;;;;;;4.35;2.53;;;13.60;99.90;;;;;;5083754;28;20028;-79
2021/05/13 11:45:59;;;;;;;3.17;1.83;;;13.50;99.90;;;;;;5084245;28;20027;-79
2021/05/13 11:48:29;;;;;;;;;;;13.40;99.90;;;;;;5085910;28;20028;-79
2021/05/13 11:50:58;;;;;;;2.42;1.55;;;13.30;99.90;;;;;;5087375;28;19971;-78
2021/05/13 11:53:24;;;;;;;1.92;1.52;;;13.30;99.90;;;;;;5086875;28;20034;-79
2021/05/13 11:55:50;;;;;;;3.53;2.08;;;13.20;99.90;;;;;;5088047;28;20203;-79
2021/05/13 11:58:41;;;;;;;2.65;1.70;;;13.20;99.90;;;;;;5084788;28;20028;-79
2021/05/13 12:01:26;;;;;;;1.80;1.50;;;13.20;99.90;;;;;;5085563;28;20032;-79
2021/05/13 12:04:12;;;;;;;2.28;1.42;;;13.20;99.90;;;;;;5087472;28;20020;-82
2021/05/13 12:06:47;;;;;;;2.78;1.70;;;13.10;99.90;;;;;;5084924;28;20035;-75
2021/05/13 12:09:15;;;;;;;3.20;1.83;;;13.00;99.90;;;;;;5085618;28;20028;-76
2021/05/13 12:11:41;;;;;;;2.22;1.50;;;13.00;99.90;;;;;;5084323;28;20059;-76
2021/05/13 12:14:12;;;;;;;4.43;1.92;;;13.00;99.90;;;;;;5087842;28;20020;-76
2021/05/13 12:16:42;;;;;;;3.05;1.70;;;13.10;99.90;;;;;;5084030;28;20109;-76
2021/05/13 12:19:10;;;;;;;1.95;1.45;;;13.10;99.90;;;;;;5081436;28;20448;-76
2021/05/13 12:21:37;;;;;;;1.58;1.45;;;13.20;99.90;;;;;;5086406;28;20034;-76
2021/05/13 12:24:04;;;;;;;1.55;1.15;;;13.20;99.90;;;;;;5087938;28;20475;-76
2021/05/13 12:26:32;;;;;;;2.10;1.30;;;13.20;99.90;;;;;;5088179;28;20047;-76
2021/05/13 12:28:58;;;;;;;2.13;1.70;;;13.30;99.90;;;;;;5086182;28;20028;-76
2021/05/13 12:31:23;;;;;;;5.07;1.75;;;13.30;99.90;;;;;;5086786;28;20054;-76
2021/05/13 12:33:49;;;;;;;3.85;1.58;;;13.30;99.90;;;;;;5087566;28;20675;-76
2021/05/13 12:36:14;;;;;;;1.67;1.30;;;13.30;99.90;;;;;;5087907;28;20035;-76
2021/05/13 12:38:43;;;;;;;2.50;1.45;;;13.30;99.90;;;;;;5087600;28;20027;-76
2021/05/13 12:41:10;;;;;;;2.88;1.33;;;13.30;99.90;;;;;;5087761;28;20021;-76
2021/05/13 12:43:36;;;;;;;1.75;1.42;;;13.20;99.90;;;;;;5087685;28;20055;-76
2021/05/13 12:46:38;;;;;;;2.25;1.23;;;13.20;99.90;;;;;;5087935;28;20103;-76
2021/05/13 12:49:03;;;;;;;1.63;1.35;;;13.20;99.90;;;;;;5087657;28;20024;-76
2021/05/13 12:51:28;;;;;;;1.50;1.10;;;13.30;99.90;;;;;;5082793;28;20444;-76
2021/05/13 12:53:57;;;;;;;3.63;1.55;;;13.20;99.90;;;;;;5087950;28;20028;-76
2021/05/13 12:56:34;;;;;;;3.42;1.60;;;13.20;99.90;;;;;;5087049;28;20040;-76
2021/05/13 12:59:01;;;;;;;4.30;1.50;;;13.20;99.90;;;;;;5088275;28;20078;-76